sensor_id;sensor_type;location;lat;lon;timestamp;P1;durP1;ratioP1;P2;durP2;ratioP2
12228;SDS011;6177;52.402;9.800;2022-09-01T00:01:11;0.87;;;0.60;;
12228;SDS011;6177;52.402;9.800;2022-09-01T00:04:03;0.60;;;0.60;;
12228;SDS011;6177;52.402;9.800;2022-09-01T00:06:49;0.50;;;0.50;;
12228;SDS011;6177;52.402;9.800;2022-09-01T00:09:34;0.57;;;0.53;;
12228;SDS011;6177;52.402;9.800;2022-09-01T00:12:19;0.57;;;0.50;;
12228;SDS011;6177;52.402;9.800;2022-09-01T00:15:06;1.30;;;0.40;;
12228;SDS011;6177;52.402;9.800;2022-09-01T00:17:53;2.83;;;0.47;;
12228;SDS011;6177;52.402;9.800;2022-09-01T00:20:38;0.53;;;0.40;;
12228;SDS011;6177;52.402;9.800;2022-09-01T00:23:22;1.00;;;0.53;;
12228;SDS011;6177;52.402;9.800;2022-09-01T00:26:07;0.73;;;0.60;;
12228;SDS011;6177;52.402;9.800;2022-09-01T00:28:51;1.93;;;0.50;;
12228;SDS011;6177;52.402;9.800;2022-09-01T00:31:36;0.40;;;0.40;;
12228;SDS011;6177;52.402;9.800;2022-09-01T00:34:21;0.57;;;0.40;;
12228;SDS011;6177;52.402;9.800;2022-09-01T00:37:06;1.70;;;0.40;;
12228;SDS011;6177;52.402;9.800;2022-09-01T00:39:51;0.50;;;0.50;;
12228;SDS011;6177;52.402;9.800;2022-09-01T00:42:36;1.30;;;0.50;;
12228;SDS011;6177;52.402;9.800;2022-09-01T00:45:22;0.80;;;0.40;;
12228;SDS011;6177;52.402;9.800;2022-09-01T00:48:07;2.13;;;0.67;;
12228;SDS011;6177;52.402;9.800;2022-09-01T00:50:52;0.60;;;0.60;;
12228;SDS011;6177;52.402;9.800;2022-09-01T00:53:37;2.17;;;0.50;;
12228;SDS011;6177;52.402;9.800;2022-09-01T00:56:26;1.47;;;0.67;;
12228;SDS011;6177;52.402;9.800;2022-09-01T00:59:13;1.23;;;0.50;;
12228;SDS011;6177;52.402;9.800;2022-09-01T01:02:00;0.50;;;0.50;;
12228;SDS011;6177;52.402;9.800;2022-09-01T01:04:45;2.00;;;0.60;;
12228;SDS011;6177;52.402;9.800;2022-09-01T01:07:29;1.23;;;0.57;;
12228;SDS011;6177;52.402;9.800;2022-09-01T01:10:17;1.33;;;0.70;;
12228;SDS011;6177;52.402;9.800;2022-09-01T01:13:09;1.00;;;0.50;;
12228;SDS011;6177;52.402;9.800;2022-09-01T01:15:57;0.77;;;0.77;;
12228;SDS011;6177;52.402;9.800;2022-09-01T01:18:42;0.97;;;0.40;;
12228;SDS011;6177;52.402;9.800;2022-09-01T01:21:32;0.60;;;0.60;;
12228;SDS011;6177;52.402;9.800;2022-09-01T01:24:40;0.70;;;0.70;;
12228;SDS011;6177;52.402;9.800;2022-09-01T01:27:30;2.17;;;0.47;;
12228;SDS011;6177;52.402;9.800;2022-09-01T01:30:17;1.97;;;0.57;;
12228;SDS011;6177;52.402;9.800;2022-09-01T01:33:04;0.67;;;0.60;;
12228;SDS011;6177;52.402;9.800;2022-09-01T01:35:50;1.17;;;0.40;;
12228;SDS011;6177;52.402;9.800;2022-09-01T01:38:36;0.83;;;0.50;;
12228;SDS011;6177;52.402;9.800;2022-09-01T01:41:20;0.53;;;0.50;;
12228;SDS011;6177;52.402;9.800;2022-09-01T01:44:07;0.77;;;0.70;;
12228;SDS011;6177;52.402;9.800;2022-09-01T01:46:51;0.60;;;0.60;;
12228;SDS011;6177;52.402;9.800;2022-09-01T01:49:38;0.77;;;0.60;;
12228;SDS011;6177;52.402;9.800;2022-09-01T01:52:27;1.47;;;0.50;;
12228;SDS011;6177;52.402;9.800;2022-09-01T01:55:13;0.60;;;0.60;;
12228;SDS011;6177;52.402;9.800;2022-09-01T01:58:03;1.00;;;0.83;;
12228;SDS011;6177;52.402;9.800;2022-09-01T02:00:48;1.30;;;0.60;;
12228;SDS011;6177;52.402;9.800;2022-09-01T02:03:34;0.60;;;0.60;;
12228;SDS011;6177;52.402;9.800;2022-09-01T02:06:22;0.50;;;0.50;;
12228;SDS011;6177;52.402;9.800;2022-09-01T02:09:11;0.70;;;0.70;;
12228;SDS011;6177;52.402;9.800;2022-09-01T02:11:56;0.97;;;0.63;;
12228;SDS011;6177;52.402;9.800;2022-09-01T02:14:42;0.53;;;0.53;;
12228;SDS011;6177;52.402;9.800;2022-09-01T02:17:27;2.53;;;0.60;;
12228;SDS011;6177;52.402;9.800;2022-09-01T02:20:13;1.17;;;0.50;;
12228;SDS011;6177;52.402;9.800;2022-09-01T02:22:58;1.40;;;0.67;;
12228;SDS011;6177;52.402;9.800;2022-09-01T02:25:54;0.83;;;0.67;;
12228;SDS011;6177;52.402;9.800;2022-09-01T02:28:44;0.70;;;0.70;;
12228;SDS011;6177;52.402;9.800;2022-09-01T02:31:33;0.80;;;0.80;;
12228;SDS011;6177;52.402;9.800;2022-09-01T02:34:22;1.27;;;0.53;;
12228;SDS011;6177;52.402;9.800;2022-09-01T02:37:12;0.67;;;0.60;;
12228;SDS011;6177;52.402;9.800;2022-09-01T02:39:56;2.77;;;0.70;;
12228;SDS011;6177;52.402;9.800;2022-09-01T02:42:41;1.73;;;0.80;;
12228;SDS011;6177;52.402;9.800;2022-09-01T02:45:26;1.03;;;0.80;;
12228;SDS011;6177;52.402;9.800;2022-09-01T02:48:12;1.00;;;1.00;;
12228;SDS011;6177;52.402;9.800;2022-09-01T02:50:58;0.60;;;0.60;;
12228;SDS011;6177;52.402;9.800;2022-09-01T02:53:45;0.70;;;0.70;;
12228;SDS011;6177;52.402;9.800;2022-09-01T02:56:33;0.77;;;0.77;;
12228;SDS011;6177;52.402;9.800;2022-09-01T02:59:18;0.90;;;0.90;;
12228;SDS011;6177;52.402;9.800;2022-09-01T03:02:05;0.60;;;0.60;;
12228;SDS011;6177;52.402;9.800;2022-09-01T03:04:49;0.63;;;0.63;;
12228;SDS011;6177;52.402;9.800;2022-09-01T03:07:35;0.80;;;0.80;;
12228;SDS011;6177;52.402;9.800;2022-09-01T03:10:22;0.97;;;0.93;;
12228;SDS011;6177;52.402;9.800;2022-09-01T03:13:16;0.70;;;0.70;;
12228;SDS011;6177;52.402;9.800;2022-09-01T03:16:07;2.37;;;0.70;;
12228;SDS011;6177;52.402;9.800;2022-09-01T03:18:52;2.13;;;0.70;;
12228;SDS011;6177;52.402;9.800;2022-09-01T03:21:38;1.80;;;1.03;;
12228;SDS011;6177;52.402;9.800;2022-09-01T03:24:24;0.87;;;0.80;;
12228;SDS011;6177;52.402;9.800;2022-09-01T03:27:09;0.73;;;0.73;;
12228;SDS011;6177;52.402;9.800;2022-09-01T03:29:55;3.30;;;1.20;;
12228;SDS011;6177;52.402;9.800;2022-09-01T03:32:39;0.97;;;0.97;;
12228;SDS011;6177;52.402;9.800;2022-09-01T03:35:26;0.90;;;0.90;;
12228;SDS011;6177;52.402;9.800;2022-09-01T03:38:12;2.10;;;0.97;;
12228;SDS011;6177;52.402;9.800;2022-09-01T03:41:04;0.90;;;0.90;;
12228;SDS011;6177;52.402;9.800;2022-09-01T03:43:49;0.80;;;0.80;;
12228;SDS011;6177;52.402;9.800;2022-09-01T03:46:38;1.50;;;1.00;;
12228;SDS011;6177;52.402;9.800;2022-09-01T03:49:23;1.30;;;0.80;;
12228;SDS011;6177;52.402;9.800;2022-09-01T03:52:11;0.90;;;0.90;;
12228;SDS011;6177;52.402;9.800;2022-09-01T03:54:57;0.90;;;0.90;;
12228;SDS011;6177;52.402;9.800;2022-09-01T03:57:42;1.17;;;1.07;;
12228;SDS011;6177;52.402;9.800;2022-09-01T04:00:27;3.33;;;1.40;;
12228;SDS011;6177;52.402;9.800;2022-09-01T04:03:14;2.43;;;1.27;;
12228;SDS011;6177;52.402;9.800;2022-09-01T04:06:07;1.27;;;0.90;;
12228;SDS011;6177;52.402;9.800;2022-09-01T04:08:52;1.27;;;1.20;;
12228;SDS011;6177;52.402;9.800;2022-09-01T04:11:45;0.70;;;0.70;;
12228;SDS011;6177;52.402;9.800;2022-09-01T04:14:34;1.40;;;0.87;;
12228;SDS011;6177;52.402;9.800;2022-09-01T04:17:19;1.10;;;1.10;;
12228;SDS011;6177;52.402;9.800;2022-09-01T04:20:22;1.20;;;1.20;;
12228;SDS011;6177;52.402;9.800;2022-09-01T04:23:08;0.90;;;0.90;;
12228;SDS011;6177;52.402;9.800;2022-09-01T04:26:04;1.43;;;1.10;;
12228;SDS011;6177;52.402;9.800;2022-09-01T04:28:53;1.20;;;1.10;;
12228;SDS011;6177;52.402;9.800;2022-09-01T04:31:39;2.57;;;1.13;;
12228;SDS011;6177;52.402;9.800;2022-09-01T04:34:24;2.33;;;1.33;;
12228;SDS011;6177;52.402;9.800;2022-09-01T04:37:11;1.33;;;1.13;;
12228;SDS011;6177;52.402;9.800;2022-09-01T04:40:04;2.87;;;1.20;;
12228;SDS011;6177;52.402;9.800;2022-09-01T04:42:49;1.90;;;1.30;;
12228;SDS011;6177;52.402;9.800;2022-09-01T04:45:35;2.57;;;1.20;;
12228;SDS011;6177;52.402;9.800;2022-09-01T04:48:20;1.20;;;1.20;;
12228;SDS011;6177;52.402;9.800;2022-09-01T04:51:06;1.70;;;1.60;;
12228;SDS011;6177;52.402;9.800;2022-09-01T04:54:07;2.17;;;1.07;;
12228;SDS011;6177;52.402;9.800;2022-09-01T04:56:55;1.70;;;1.37;;
12228;SDS011;6177;52.402;9.800;2022-09-01T04:59:41;2.57;;;1.23;;
12228;SDS011;6177;52.402;9.800;2022-09-01T05:02:26;1.67;;;1.57;;
12228;SDS011;6177;52.402;9.800;2022-09-01T05:05:12;1.53;;;1.43;;
12228;SDS011;6177;52.402;9.800;2022-09-01T05:07:57;1.33;;;1.17;;
12228;SDS011;6177;52.402;9.800;2022-09-01T05:10:47;1.23;;;1.07;;
12228;SDS011;6177;52.402;9.800;2022-09-01T05:13:38;2.10;;;0.90;;
12228;SDS011;6177;52.402;9.800;2022-09-01T05:16:23;1.50;;;1.40;;
12228;SDS011;6177;52.402;9.800;2022-09-01T05:19:14;1.30;;;1.30;;
12228;SDS011;6177;52.402;9.800;2022-09-01T05:22:01;1.57;;;1.47;;
12228;SDS011;6177;52.402;9.800;2022-09-01T05:24:48;1.80;;;1.43;;
12228;SDS011;6177;52.402;9.800;2022-09-01T05:27:34;1.40;;;1.23;;
12228;SDS011;6177;52.402;9.800;2022-09-01T05:30:19;1.60;;;1.20;;
12228;SDS011;6177;52.402;9.800;2022-09-01T05:33:05;1.30;;;1.30;;
12228;SDS011;6177;52.402;9.800;2022-09-01T05:35:56;2.27;;;1.33;;
12228;SDS011;6177;52.402;9.800;2022-09-01T05:38:45;2.00;;;1.10;;
12228;SDS011;6177;52.402;9.800;2022-09-01T05:41:32;1.10;;;1.10;;
12228;SDS011;6177;52.402;9.800;2022-09-01T05:44:19;8.53;;;2.10;;
12228;SDS011;6177;52.402;9.800;2022-09-01T05:47:07;2.37;;;1.50;;
12228;SDS011;6177;52.402;9.800;2022-09-01T05:49:52;1.97;;;1.87;;
12228;SDS011;6177;52.402;9.800;2022-09-01T05:52:38;1.50;;;1.50;;
12228;SDS011;6177;52.402;9.800;2022-09-01T05:55:23;1.53;;;1.50;;
12228;SDS011;6177;52.402;9.800;2022-09-01T05:58:11;3.03;;;1.80;;
12228;SDS011;6177;52.402;9.800;2022-09-01T06:00:57;1.90;;;1.80;;
12228;SDS011;6177;52.402;9.800;2022-09-01T06:03:43;3.00;;;2.27;;
12228;SDS011;6177;52.402;9.800;2022-09-01T06:06:50;3.53;;;2.40;;
12228;SDS011;6177;52.402;9.800;2022-09-01T06:09:40;2.10;;;1.90;;
12228;SDS011;6177;52.402;9.800;2022-09-01T06:12:29;6.40;;;2.07;;
12228;SDS011;6177;52.402;9.800;2022-09-01T06:15:14;2.20;;;1.87;;
12228;SDS011;6177;52.402;9.800;2022-09-01T06:18:10;2.47;;;2.00;;
12228;SDS011;6177;52.402;9.800;2022-09-01T06:21:04;2.20;;;2.00;;
12228;SDS011;6177;52.402;9.800;2022-09-01T06:23:51;10.00;;;2.93;;
12228;SDS011;6177;52.402;9.800;2022-09-01T06:26:37;2.60;;;1.93;;
12228;SDS011;6177;52.402;9.800;2022-09-01T06:29:24;1.90;;;1.53;;
12228;SDS011;6177;52.402;9.800;2022-09-01T06:32:09;5.03;;;1.73;;
12228;SDS011;6177;52.402;9.800;2022-09-01T06:34:55;1.50;;;1.40;;
12228;SDS011;6177;52.402;9.800;2022-09-01T06:37:42;1.77;;;1.67;;
12228;SDS011;6177;52.402;9.800;2022-09-01T06:40:28;1.87;;;1.40;;
12228;SDS011;6177;52.402;9.800;2022-09-01T06:43:14;2.07;;;1.80;;
12228;SDS011;6177;52.402;9.800;2022-09-01T06:46:04;2.37;;;1.57;;
12228;SDS011;6177;52.402;9.800;2022-09-01T06:48:49;3.10;;;1.83;;
12228;SDS011;6177;52.402;9.800;2022-09-01T06:51:33;2.67;;;1.30;;
12228;SDS011;6177;52.402;9.800;2022-09-01T06:54:18;1.13;;;1.13;;
12228;SDS011;6177;52.402;9.800;2022-09-01T06:57:04;2.00;;;1.20;;
12228;SDS011;6177;52.402;9.800;2022-09-01T06:59:49;1.33;;;1.20;;
12228;SDS011;6177;52.402;9.800;2022-09-01T07:02:34;1.17;;;1.17;;
12228;SDS011;6177;52.402;9.800;2022-09-01T07:05:46;1.73;;;1.43;;
12228;SDS011;6177;52.402;9.800;2022-09-01T07:08:34;0.93;;;0.93;;
12228;SDS011;6177;52.402;9.800;2022-09-01T07:11:27;1.10;;;1.10;;
12228;SDS011;6177;52.402;9.800;2022-09-01T07:14:15;1.30;;;0.93;;
12228;SDS011;6177;52.402;9.800;2022-09-01T07:17:00;2.40;;;1.00;;
12228;SDS011;6177;52.402;9.800;2022-09-01T07:19:45;0.80;;;0.73;;
12228;SDS011;6177;52.402;9.800;2022-09-01T07:22:31;2.27;;;0.80;;
12228;SDS011;6177;52.402;9.800;2022-09-01T07:25:15;0.80;;;0.80;;
12228;SDS011;6177;52.402;9.800;2022-09-01T07:28:33;2.57;;;1.00;;
12228;SDS011;6177;52.402;9.800;2022-09-01T07:31:19;1.90;;;0.50;;
12228;SDS011;6177;52.402;9.800;2022-09-01T07:34:07;1.23;;;0.80;;
12228;SDS011;6177;52.402;9.800;2022-09-01T07:36:56;0.90;;;0.50;;
12228;SDS011;6177;52.402;9.800;2022-09-01T07:39:43;0.97;;;0.50;;
12228;SDS011;6177;52.402;9.800;2022-09-01T07:42:52;1.50;;;0.60;;
12228;SDS011;6177;52.402;9.800;2022-09-01T07:46:02;1.60;;;0.60;;
12228;SDS011;6177;52.402;9.800;2022-09-01T07:48:49;0.60;;;0.60;;
12228;SDS011;6177;52.402;9.800;2022-09-01T07:51:36;0.57;;;0.30;;
12228;SDS011;6177;52.402;9.800;2022-09-01T07:54:21;0.93;;;0.67;;
12228;SDS011;6177;52.402;9.800;2022-09-01T07:57:08;0.80;;;0.40;;
12228;SDS011;6177;52.402;9.800;2022-09-01T07:59:53;1.47;;;0.40;;
12228;SDS011;6177;52.402;9.800;2022-09-01T08:02:56;0.97;;;0.40;;
12228;SDS011;6177;52.402;9.800;2022-09-01T08:05:41;0.30;;;0.30;;
12228;SDS011;6177;52.402;9.800;2022-09-01T08:08:27;0.67;;;0.30;;
12228;SDS011;6177;52.402;9.800;2022-09-01T08:11:19;0.40;;;0.23;;
12228;SDS011;6177;52.402;9.800;2022-09-01T08:14:09;0.30;;;0.30;;
12228;SDS011;6177;52.402;9.800;2022-09-01T08:16:54;0.60;;;0.50;;
12228;SDS011;6177;52.402;9.800;2022-09-01T08:19:39;0.40;;;0.30;;
12228;SDS011;6177;52.402;9.800;2022-09-01T08:22:28;1.07;;;0.43;;
12228;SDS011;6177;52.402;9.800;2022-09-01T08:25:19;1.80;;;0.27;;
12228;SDS011;6177;52.402;9.800;2022-09-01T08:28:04;1.40;;;0.43;;
12228;SDS011;6177;52.402;9.800;2022-09-01T08:30:49;0.93;;;0.70;;
12228;SDS011;6177;52.402;9.800;2022-09-01T08:33:38;2.33;;;0.60;;
12228;SDS011;6177;52.402;9.800;2022-09-01T08:36:24;0.30;;;0.30;;
12228;SDS011;6177;52.402;9.800;2022-09-01T08:39:09;0.40;;;0.40;;
12228;SDS011;6177;52.402;9.800;2022-09-01T08:47:43;0.57;;;0.30;;
12228;SDS011;6177;52.402;9.800;2022-09-01T08:50:28;0.50;;;0.40;;
12228;SDS011;6177;52.402;9.800;2022-09-01T08:53:35;1.40;;;0.30;;
12228;SDS011;6177;52.402;9.800;2022-09-01T08:56:26;0.30;;;0.30;;
12228;SDS011;6177;52.402;9.800;2022-09-01T08:59:12;0.50;;;0.30;;
12228;SDS011;6177;52.402;9.800;2022-09-01T09:02:39;1.40;;;0.57;;
12228;SDS011;6177;52.402;9.800;2022-09-01T09:05:53;0.53;;;0.53;;
12228;SDS011;6177;52.402;9.800;2022-09-01T09:08:57;0.40;;;0.40;;
12228;SDS011;6177;52.402;9.800;2022-09-01T09:12:04;0.40;;;0.40;;
12228;SDS011;6177;52.402;9.800;2022-09-01T09:18:09;2.97;;;0.60;;
12228;SDS011;6177;52.402;9.800;2022-09-01T09:20:56;1.60;;;0.30;;
12228;SDS011;6177;52.402;9.800;2022-09-01T09:24:35;1.20;;;0.45;;
12228;SDS011;6177;52.402;9.800;2022-09-01T09:26:59;0.47;;;0.47;;
12228;SDS011;6177;52.402;9.800;2022-09-01T09:29:54;1.50;;;0.30;;
12228;SDS011;6177;52.402;9.800;2022-09-01T09:35:40;0.40;;;0.40;;
12228;SDS011;6177;52.402;9.800;2022-09-01T09:38:27;2.15;;;0.40;;
12228;SDS011;6177;52.402;9.800;2022-09-01T09:41:16;0.50;;;0.50;;
12228;SDS011;6177;52.402;9.800;2022-09-01T09:46:54;4.78;;;0.65;;
12228;SDS011;6177;52.402;9.800;2022-09-01T09:49:40;0.52;;;0.52;;
12228;SDS011;6177;52.402;9.800;2022-09-01T09:52:25;1.53;;;0.30;;
12228;SDS011;6177;52.402;9.800;2022-09-01T09:55:20;1.52;;;0.40;;
12228;SDS011;6177;52.402;9.800;2022-09-01T09:58:09;0.80;;;0.30;;
12228;SDS011;6177;52.402;9.800;2022-09-01T10:01:14;0.47;;;0.40;;
12228;SDS011;6177;52.402;9.800;2022-09-01T10:04:04;0.60;;;0.40;;
12228;SDS011;6177;52.402;9.800;2022-09-01T10:06:49;0.55;;;0.30;;
12228;SDS011;6177;52.402;9.800;2022-09-01T10:09:36;0.22;;;0.22;;
12228;SDS011;6177;52.402;9.800;2022-09-01T10:12:22;0.40;;;0.40;;
12228;SDS011;6177;52.402;9.800;2022-09-01T10:15:08;0.40;;;0.30;;
12228;SDS011;6177;52.402;9.800;2022-09-01T10:17:54;0.63;;;0.40;;
12228;SDS011;6177;52.402;9.800;2022-09-01T10:20:48;6.30;;;0.35;;
12228;SDS011;6177;52.402;9.800;2022-09-01T10:23:39;0.35;;;0.35;;
12228;SDS011;6177;52.402;9.800;2022-09-01T10:26:32;1.30;;;0.30;;
12228;SDS011;6177;52.402;9.800;2022-09-01T10:29:25;1.30;;;0.32;;
12228;SDS011;6177;52.402;9.800;2022-09-01T10:32:24;0.65;;;0.40;;
12228;SDS011;6177;52.402;9.800;2022-09-01T10:35:17;0.63;;;0.40;;
12228;SDS011;6177;52.402;9.800;2022-09-01T10:38:08;0.47;;;0.47;;
12228;SDS011;6177;52.402;9.800;2022-09-01T10:40:58;1.75;;;0.47;;
12228;SDS011;6177;52.402;9.800;2022-09-01T10:43:52;0.38;;;0.30;;
12228;SDS011;6177;52.402;9.800;2022-09-01T10:46:40;1.92;;;0.30;;
12228;SDS011;6177;52.402;9.800;2022-09-01T10:52:51;0.80;;;0.60;;
12228;SDS011;6177;52.402;9.800;2022-09-01T11:01:40;1.25;;;0.30;;
12228;SDS011;6177;52.402;9.800;2022-09-01T11:05:10;0.40;;;0.40;;
12228;SDS011;6177;52.402;9.800;2022-09-01T11:07:29;0.20;;;0.20;;
12228;SDS011;6177;52.402;9.800;2022-09-01T11:10:22;1.75;;;0.40;;
12228;SDS011;6177;52.402;9.800;2022-09-01T11:16:37;0.30;;;0.30;;
12228;SDS011;6177;52.402;9.800;2022-09-01T11:34:11;1.00;;;0.30;;
12228;SDS011;6177;52.402;9.800;2022-09-01T11:36:58;0.47;;;0.30;;
12228;SDS011;6177;52.402;9.800;2022-09-01T11:42:37;1.58;;;0.52;;
12228;SDS011;6177;52.402;9.800;2022-09-01T11:45:30;0.40;;;0.40;;
12228;SDS011;6177;52.402;9.800;2022-09-01T11:48:17;1.33;;;0.50;;
12228;SDS011;6177;52.402;9.800;2022-09-01T11:51:02;3.10;;;0.30;;
12228;SDS011;6177;52.402;9.800;2022-09-01T11:53:48;2.03;;;0.40;;
12228;SDS011;6177;52.402;9.800;2022-09-01T11:56:33;0.30;;;0.30;;
12228;SDS011;6177;52.402;9.800;2022-09-01T11:59:31;0.30;;;0.30;;
12228;SDS011;6177;52.402;9.800;2022-09-01T12:02:21;0.65;;;0.30;;
12228;SDS011;6177;52.402;9.800;2022-09-01T12:08:11;3.78;;;0.40;;
12228;SDS011;6177;52.402;9.800;2022-09-01T12:11:10;0.68;;;0.47;;
12228;SDS011;6177;52.402;9.800;2022-09-01T12:14:06;0.30;;;0.30;;
12228;SDS011;6177;52.402;9.800;2022-09-01T12:16:56;0.20;;;0.20;;
12228;SDS011;6177;52.402;9.800;2022-09-01T12:19:50;0.30;;;0.30;;
12228;SDS011;6177;52.402;9.800;2022-09-01T12:22:35;0.35;;;0.35;;
12228;SDS011;6177;52.402;9.800;2022-09-01T12:25:27;1.90;;;0.30;;
12228;SDS011;6177;52.402;9.800;2022-09-01T12:28:16;0.50;;;0.30;;
12228;SDS011;6177;52.402;9.800;2022-09-01T12:31:02;1.52;;;0.28;;
12228;SDS011;6177;52.402;9.800;2022-09-01T12:33:50;1.45;;;0.63;;
12228;SDS011;6177;52.402;9.800;2022-09-01T12:36:36;0.20;;;0.20;;
12228;SDS011;6177;52.402;9.800;2022-09-01T12:39:22;0.68;;;0.30;;
12228;SDS011;6177;52.402;9.800;2022-09-01T12:42:26;0.30;;;0.20;;
12228;SDS011;6177;52.402;9.800;2022-09-01T12:45:34;2.08;;;0.30;;
12228;SDS011;6177;52.402;9.800;2022-09-01T12:48:28;0.47;;;0.20;;
12228;SDS011;6177;52.402;9.800;2022-09-01T12:51:19;0.40;;;0.40;;
12228;SDS011;6177;52.402;9.800;2022-09-01T12:54:08;0.20;;;0.20;;
12228;SDS011;6177;52.402;9.800;2022-09-01T12:56:54;0.30;;;0.30;;
12228;SDS011;6177;52.402;9.800;2022-09-01T12:59:39;0.40;;;0.40;;
12228;SDS011;6177;52.402;9.800;2022-09-01T13:03:24;2.92;;;0.45;;
12228;SDS011;6177;52.402;9.800;2022-09-01T13:05:41;1.67;;;0.30;;
12228;SDS011;6177;52.402;9.800;2022-09-01T13:08:31;0.90;;;0.40;;
12228;SDS011;6177;52.402;9.800;2022-09-01T13:11:17;0.30;;;0.30;;
12228;SDS011;6177;52.402;9.800;2022-09-01T13:14:03;0.65;;;0.30;;
12228;SDS011;6177;52.402;9.800;2022-09-01T13:16:47;0.60;;;0.28;;
12228;SDS011;6177;52.402;9.800;2022-09-01T13:19:32;0.30;;;0.30;;
12228;SDS011;6177;52.402;9.800;2022-09-01T13:22:17;0.50;;;0.50;;
12228;SDS011;6177;52.402;9.800;2022-09-01T13:25:01;0.45;;;0.28;;
12228;SDS011;6177;52.402;9.800;2022-09-01T13:27:46;0.35;;;0.35;;
12228;SDS011;6177;52.402;9.800;2022-09-01T13:30:31;0.82;;;0.52;;
12228;SDS011;6177;52.402;9.800;2022-09-01T13:33:16;1.90;;;0.40;;
12228;SDS011;6177;52.402;9.800;2022-09-01T13:36:01;1.27;;;0.40;;
12228;SDS011;6177;52.402;9.800;2022-09-01T13:38:47;1.40;;;0.30;;
12228;SDS011;6177;52.402;9.800;2022-09-01T13:41:31;0.40;;;0.40;;
12228;SDS011;6177;52.402;9.800;2022-09-01T13:44:16;0.63;;;0.40;;
12228;SDS011;6177;52.402;9.800;2022-09-01T13:47:01;1.40;;;0.30;;
12228;SDS011;6177;52.402;9.800;2022-09-01T13:49:47;0.50;;;0.47;;
12228;SDS011;6177;52.402;9.800;2022-09-01T13:52:31;0.60;;;0.47;;
12228;SDS011;6177;52.402;9.800;2022-09-01T13:55:18;1.15;;;0.30;;
12228;SDS011;6177;52.402;9.800;2022-09-01T13:58:04;0.52;;;0.22;;
12228;SDS011;6177;52.402;9.800;2022-09-01T14:00:48;2.03;;;0.50;;
12228;SDS011;6177;52.402;9.800;2022-09-01T14:03:34;0.45;;;0.45;;
12228;SDS011;6177;52.402;9.800;2022-09-01T14:06:18;0.32;;;0.30;;
12228;SDS011;6177;52.402;9.800;2022-09-01T14:09:04;3.30;;;0.40;;
12228;SDS011;6177;52.402;9.800;2022-09-01T14:11:51;1.10;;;0.40;;
12228;SDS011;6177;52.402;9.800;2022-09-01T14:14:38;0.20;;;0.20;;
12228;SDS011;6177;52.402;9.800;2022-09-01T14:17:23;0.85;;;0.50;;
12228;SDS011;6177;52.402;9.800;2022-09-01T14:20:09;0.20;;;0.20;;
12228;SDS011;6177;52.402;9.800;2022-09-01T14:22:57;2.97;;;0.57;;
12228;SDS011;6177;52.402;9.800;2022-09-01T17:42:15;1.45;;;0.57;;
12228;SDS011;6177;52.402;9.800;2022-09-01T17:48:27;0.20;;;0.20;;
12228;SDS011;6177;52.402;9.800;2022-09-01T17:54:41;0.22;;;0.20;;
12228;SDS011;6177;52.402;9.800;2022-09-01T17:57:57;0.30;;;0.30;;
12228;SDS011;6177;52.402;9.800;2022-09-01T18:01:03;0.20;;;0.20;;
12228;SDS011;6177;52.402;9.800;2022-09-01T18:09:59;0.98;;;0.22;;
12228;SDS011;6177;52.402;9.800;2022-09-01T18:12:51;0.20;;;0.20;;
12228;SDS011;6177;52.402;9.800;2022-09-01T18:15:52;1.38;;;0.20;;
12228;SDS011;6177;52.402;9.800;2022-09-01T18:18:39;3.20;;;0.60;;
12228;SDS011;6177;52.402;9.800;2022-09-01T18:21:31;1.02;;;0.50;;
12228;SDS011;6177;52.402;9.800;2022-09-01T18:27:45;1.55;;;0.50;;
12228;SDS011;6177;52.402;9.800;2022-09-01T18:30:30;1.95;;;0.40;;
12228;SDS011;6177;52.402;9.800;2022-09-01T18:36:52;1.60;;;0.30;;
12228;SDS011;6177;52.402;9.800;2022-09-01T18:49:20;0.30;;;0.30;;
12228;SDS011;6177;52.402;9.800;2022-09-01T18:52:10;4.20;;;0.55;;
12228;SDS011;6177;52.402;9.800;2022-09-01T19:20:22;0.98;;;0.40;;
12228;SDS011;6177;52.402;9.800;2022-09-01T19:23:24;0.68;;;0.40;;
12228;SDS011;6177;52.402;9.800;2022-09-01T19:26:15;1.25;;;0.40;;
12228;SDS011;6177;52.402;9.800;2022-09-01T19:29:06;1.55;;;0.68;;
12228;SDS011;6177;52.402;9.800;2022-09-01T19:31:56;0.80;;;0.50;;
12228;SDS011;6177;52.402;9.800;2022-09-01T19:34:50;0.30;;;0.30;;
12228;SDS011;6177;52.402;9.800;2022-09-01T19:37:46;0.40;;;0.40;;
12228;SDS011;6177;52.402;9.800;2022-09-01T19:40:35;1.27;;;0.40;;
12228;SDS011;6177;52.402;9.800;2022-09-01T19:43:22;0.40;;;0.30;;
12228;SDS011;6177;52.402;9.800;2022-09-01T19:49:15;0.57;;;0.50;;
12228;SDS011;6177;52.402;9.800;2022-09-01T20:01:22;0.95;;;0.65;;
12228;SDS011;6177;52.402;9.800;2022-09-01T20:07:26;2.38;;;0.40;;
12228;SDS011;6177;52.402;9.800;2022-09-01T20:25:47;0.75;;;0.40;;
12228;SDS011;6177;52.402;9.800;2022-09-01T20:31:29;1.60;;;0.50;;
12228;SDS011;6177;52.402;9.800;2022-09-01T20:34:27;1.85;;;0.73;;
12228;SDS011;6177;52.402;9.800;2022-09-01T20:37:21;0.55;;;0.50;;
12228;SDS011;6177;52.402;9.800;2022-09-01T20:40:28;0.65;;;0.63;;
12228;SDS011;6177;52.402;9.800;2022-09-01T20:43:24;0.88;;;0.40;;
12228;SDS011;6177;52.402;9.800;2022-09-01T20:46:16;0.55;;;0.30;;
12228;SDS011;6177;52.402;9.800;2022-09-01T20:49:05;0.28;;;0.28;;
12228;SDS011;6177;52.402;9.800;2022-09-01T20:52:06;0.40;;;0.35;;
12228;SDS011;6177;52.402;9.800;2022-09-01T21:01:11;0.80;;;0.40;;
12228;SDS011;6177;52.402;9.800;2022-09-01T21:04:22;0.40;;;0.40;;
12228;SDS011;6177;52.402;9.800;2022-09-01T21:07:40;1.15;;;0.40;;
12228;SDS011;6177;52.402;9.800;2022-09-01T21:16:14;0.30;;;0.30;;
12228;SDS011;6177;52.402;9.800;2022-09-01T21:19:25;1.75;;;0.63;;
12228;SDS011;6177;52.402;9.800;2022-09-01T21:22:14;0.40;;;0.40;;
12228;SDS011;6177;52.402;9.800;2022-09-01T21:25:00;0.50;;;0.40;;
12228;SDS011;6177;52.402;9.800;2022-09-01T21:27:46;0.45;;;0.45;;
12228;SDS011;6177;52.402;9.800;2022-09-01T21:30:34;0.50;;;0.50;;
12228;SDS011;6177;52.402;9.800;2022-09-01T21:33:20;0.47;;;0.47;;
12228;SDS011;6177;52.402;9.800;2022-09-01T21:36:05;0.30;;;0.30;;
12228;SDS011;6177;52.402;9.800;2022-09-01T21:38:50;1.58;;;0.70;;
12228;SDS011;6177;52.402;9.800;2022-09-01T21:41:34;1.27;;;0.40;;
12228;SDS011;6177;52.402;9.800;2022-09-01T21:44:20;0.47;;;0.47;;
12228;SDS011;6177;52.402;9.800;2022-09-01T21:47:04;0.55;;;0.40;;
12228;SDS011;6177;52.402;9.800;2022-09-01T21:49:49;1.23;;;0.60;;
12228;SDS011;6177;52.402;9.800;2022-09-01T21:52:34;1.17;;;0.35;;
12228;SDS011;6177;52.402;9.800;2022-09-01T21:55:19;0.70;;;0.30;;
12228;SDS011;6177;52.402;9.800;2022-09-01T21:58:05;0.60;;;0.60;;
12228;SDS011;6177;52.402;9.800;2022-09-01T22:00:50;0.43;;;0.40;;
12228;SDS011;6177;52.402;9.800;2022-09-01T22:03:35;0.52;;;0.52;;
12228;SDS011;6177;52.402;9.800;2022-09-01T22:06:20;1.70;;;0.50;;
12228;SDS011;6177;52.402;9.800;2022-09-01T22:09:06;0.98;;;0.40;;
12228;SDS011;6177;52.402;9.800;2022-09-01T22:11:51;0.68;;;0.50;;
12228;SDS011;6177;52.402;9.800;2022-09-01T22:14:36;0.50;;;0.50;;
12228;SDS011;6177;52.402;9.800;2022-09-01T22:17:21;0.57;;;0.57;;
12228;SDS011;6177;52.402;9.800;2022-09-01T22:20:07;0.47;;;0.47;;
12228;SDS011;6177;52.402;9.800;2022-09-01T22:22:53;1.93;;;0.50;;
12228;SDS011;6177;52.402;9.800;2022-09-01T22:25:43;0.60;;;0.50;;
12228;SDS011;6177;52.402;9.800;2022-09-01T22:28:29;0.73;;;0.32;;
12228;SDS011;6177;52.402;9.800;2022-09-01T22:31:15;0.33;;;0.33;;
12228;SDS011;6177;52.402;9.800;2022-09-01T22:34:01;0.70;;;0.50;;
12228;SDS011;6177;52.402;9.800;2022-09-01T22:36:47;0.83;;;0.40;;
12228;SDS011;6177;52.402;9.800;2022-09-01T22:39:32;0.40;;;0.40;;
12228;SDS011;6177;52.402;9.800;2022-09-01T22:42:17;2.83;;;0.50;;
12228;SDS011;6177;52.402;9.800;2022-09-01T22:45:01;0.40;;;0.40;;
12228;SDS011;6177;52.402;9.800;2022-09-01T22:47:47;0.63;;;0.57;;
12228;SDS011;6177;52.402;9.800;2022-09-01T22:50:31;2.00;;;0.60;;
12228;SDS011;6177;52.402;9.800;2022-09-01T22:53:17;0.83;;;0.53;;
12228;SDS011;6177;52.402;9.800;2022-09-01T22:56:17;1.13;;;0.50;;
12228;SDS011;6177;52.402;9.800;2022-09-01T22:59:06;0.40;;;0.40;;